sensor_id;sensor_type;location;lat;lon;timestamp;temperature;humidity
65584;DHT22;73032;43.592;1.458;2024-01-25T00:00:20;10.93;80.09
65584;DHT22;73032;43.592;1.458;2024-01-25T00:02:47;10.92;80.17
65584;DHT22;73032;43.592;1.458;2024-01-25T00:05:14;10.89;80.31
65584;DHT22;73032;43.592;1.458;2024-01-25T00:07:48;10.86;80.41
65584;DHT22;73032;43.592;1.458;2024-01-25T00:10:16;10.83;80.40
65584;DHT22;73032;43.592;1.458;2024-01-25T00:12:44;10.84;80.50
65584;DHT22;73032;43.592;1.458;2024-01-25T00:15:13;10.79;80.28
65584;DHT22;73032;43.592;1.458;2024-01-25T00:17:40;10.79;80.45
65584;DHT22;73032;43.592;1.458;2024-01-25T00:20:09;10.76;80.26
65584;DHT22;73032;43.592;1.458;2024-01-25T00:22:36;10.73;80.68
65584;DHT22;73032;43.592;1.458;2024-01-25T00:25:05;10.72;80.72
65584;DHT22;73032;43.592;1.458;2024-01-25T00:27:32;10.66;80.65
65584;DHT22;73032;43.592;1.458;2024-01-25T00:29:59;10.65;80.66
65584;DHT22;73032;43.592;1.458;2024-01-25T00:32:27;10.63;80.79
65584;DHT22;73032;43.592;1.458;2024-01-25T00:34:54;10.62;80.83
65584;DHT22;73032;43.592;1.458;2024-01-25T00:37:21;10.62;80.99
65584;DHT22;73032;43.592;1.458;2024-01-25T00:39:48;10.59;80.90
65584;DHT22;73032;43.592;1.458;2024-01-25T00:42:17;10.59;80.99
65584;DHT22;73032;43.592;1.458;2024-01-25T00:44:46;10.53;80.97
65584;DHT22;73032;43.592;1.458;2024-01-25T00:47:13;10.53;81.04
65584;DHT22;73032;43.592;1.458;2024-01-25T00:49:40;10.49;81.05
65584;DHT22;73032;43.592;1.458;2024-01-25T00:52:08;10.48;81.40
65584;DHT22;73032;43.592;1.458;2024-01-25T00:54:35;10.46;81.14
65584;DHT22;73032;43.592;1.458;2024-01-25T00:57:02;10.45;81.20
65584;DHT22;73032;43.592;1.458;2024-01-25T00:59:29;10.42;81.19
65584;DHT22;73032;43.592;1.458;2024-01-25T01:01:58;10.39;81.25
65584;DHT22;73032;43.592;1.458;2024-01-25T01:04:26;10.36;81.31
65584;DHT22;73032;43.592;1.458;2024-01-25T01:06:53;10.35;81.33
65584;DHT22;73032;43.592;1.458;2024-01-25T01:09:20;10.32;81.25
65584;DHT22;73032;43.592;1.458;2024-01-25T01:11:47;10.29;81.43
65584;DHT22;73032;43.592;1.458;2024-01-25T01:14:13;10.29;81.40
65584;DHT22;73032;43.592;1.458;2024-01-25T01:16:40;10.24;81.51
65584;DHT22;73032;43.592;1.458;2024-01-25T01:19:07;10.25;81.64
65584;DHT22;73032;43.592;1.458;2024-01-25T01:21:34;10.22;81.55
65584;DHT22;73032;43.592;1.458;2024-01-25T01:24:02;10.21;81.71
65584;DHT22;73032;43.592;1.458;2024-01-25T01:26:29;10.18;81.62
65584;DHT22;73032;43.592;1.458;2024-01-25T01:28:56;10.19;81.55
65584;DHT22;73032;43.592;1.458;2024-01-25T01:31:22;10.16;81.68
65584;DHT22;73032;43.592;1.458;2024-01-25T01:33:49;10.14;81.88
65584;DHT22;73032;43.592;1.458;2024-01-25T01:36:16;10.11;81.97
65584;DHT22;73032;43.592;1.458;2024-01-25T01:38:43;10.09;82.00
65584;DHT22;73032;43.592;1.458;2024-01-25T01:41:10;10.08;81.86
65584;DHT22;73032;43.592;1.458;2024-01-25T01:43:40;10.04;81.95
65584;DHT22;73032;43.592;1.458;2024-01-25T01:46:11;10.02;82.04
65584;DHT22;73032;43.592;1.458;2024-01-25T01:48:39;10.01;82.13
65584;DHT22;73032;43.592;1.458;2024-01-25T01:51:07;9.98;82.14
65584;DHT22;73032;43.592;1.458;2024-01-25T01:53:34;9.99;81.98
65584;DHT22;73032;43.592;1.458;2024-01-25T01:56:01;9.94;82.03
65584;DHT22;73032;43.592;1.458;2024-01-25T01:58:28;9.95;81.90
65584;DHT22;73032;43.592;1.458;2024-01-25T02:00:55;9.98;81.91
65584;DHT22;73032;43.592;1.458;2024-01-25T02:03:22;9.99;81.91
65584;DHT22;73032;43.592;1.458;2024-01-25T02:05:49;10.06;81.78
65584;DHT22;73032;43.592;1.458;2024-01-25T02:08:17;10.08;81.71
65584;DHT22;73032;43.592;1.458;2024-01-25T02:10:44;10.15;81.64
65584;DHT22;73032;43.592;1.458;2024-01-25T02:13:10;10.14;81.52
65584;DHT22;73032;43.592;1.458;2024-01-25T02:15:37;10.16;81.42
65584;DHT22;73032;43.592;1.458;2024-01-25T02:18:04;10.19;81.36
65584;DHT22;73032;43.592;1.458;2024-01-25T02:20:31;10.21;81.32
65584;DHT22;73032;43.592;1.458;2024-01-25T02:22:58;10.21;81.28
65584;DHT22;73032;43.592;1.458;2024-01-25T02:25:25;10.21;81.25
65584;DHT22;73032;43.592;1.458;2024-01-25T02:27:52;10.18;81.20
65584;DHT22;73032;43.592;1.458;2024-01-25T02:30:19;10.18;81.23
65584;DHT22;73032;43.592;1.458;2024-01-25T02:32:46;10.15;81.26
65584;DHT22;73032;43.592;1.458;2024-01-25T02:35:13;10.14;81.17
65584;DHT22;73032;43.592;1.458;2024-01-25T02:37:40;10.12;81.21
65584;DHT22;73032;43.592;1.458;2024-01-25T02:40:07;10.11;81.24
65584;DHT22;73032;43.592;1.458;2024-01-25T02:42:34;10.12;81.21
65584;DHT22;73032;43.592;1.458;2024-01-25T02:45:01;10.11;81.26
65584;DHT22;73032;43.592;1.458;2024-01-25T02:47:27;10.11;81.21
65584;DHT22;73032;43.592;1.458;2024-01-25T02:49:54;10.11;81.28
65584;DHT22;73032;43.592;1.458;2024-01-25T02:52:21;10.06;81.32
65584;DHT22;73032;43.592;1.458;2024-01-25T02:54:48;10.06;81.32
65584;DHT22;73032;43.592;1.458;2024-01-25T02:57:17;10.06;81.34
65584;DHT22;73032;43.592;1.458;2024-01-25T02:59:44;10.06;81.40
65584;DHT22;73032;43.592;1.458;2024-01-25T03:02:11;10.05;81.42
65584;DHT22;73032;43.592;1.458;2024-01-25T03:04:38;10.04;81.47
65584;DHT22;73032;43.592;1.458;2024-01-25T03:07:05;10.02;81.44
65584;DHT22;73032;43.592;1.458;2024-01-25T03:09:31;10.02;81.49
65584;DHT22;73032;43.592;1.458;2024-01-25T03:11:59;10.01;81.53
65584;DHT22;73032;43.592;1.458;2024-01-25T03:14:26;10.02;81.48
65584;DHT22;73032;43.592;1.458;2024-01-25T03:16:53;10.04;81.54
65584;DHT22;73032;43.592;1.458;2024-01-25T03:19:20;10.02;81.53
65584;DHT22;73032;43.592;1.458;2024-01-25T03:21:46;10.05;81.54
65584;DHT22;73032;43.592;1.458;2024-01-25T03:24:13;10.05;81.50
65584;DHT22;73032;43.592;1.458;2024-01-25T03:26:40;10.08;81.50
65584;DHT22;73032;43.592;1.458;2024-01-25T03:29:07;10.09;81.56
65584;DHT22;73032;43.592;1.458;2024-01-25T03:31:33;10.09;81.55
65584;DHT22;73032;43.592;1.458;2024-01-25T03:34:02;10.08;81.51
65584;DHT22;73032;43.592;1.458;2024-01-25T03:36:29;10.09;81.51
65584;DHT22;73032;43.592;1.458;2024-01-25T03:38:57;10.11;81.53
65584;DHT22;73032;43.592;1.458;2024-01-25T03:41:24;10.11;81.55
65584;DHT22;73032;43.592;1.458;2024-01-25T03:43:50;10.12;81.55
65584;DHT22;73032;43.592;1.458;2024-01-25T03:46:18;10.11;81.64
65584;DHT22;73032;43.592;1.458;2024-01-25T03:48:45;10.14;81.73
65584;DHT22;73032;43.592;1.458;2024-01-25T03:51:11;10.11;81.78
65584;DHT22;73032;43.592;1.458;2024-01-25T03:53:38;10.11;81.77
65584;DHT22;73032;43.592;1.458;2024-01-25T03:56:13;10.14;81.81
65584;DHT22;73032;43.592;1.458;2024-01-25T03:58:39;10.12;81.76
65584;DHT22;73032;43.592;1.458;2024-01-25T04:01:06;10.11;81.81
65584;DHT22;73032;43.592;1.458;2024-01-25T04:03:33;10.12;81.83
65584;DHT22;73032;43.592;1.458;2024-01-25T04:06:01;10.09;81.82
65584;DHT22;73032;43.592;1.458;2024-01-25T04:08:28;10.09;81.85
65584;DHT22;73032;43.592;1.458;2024-01-25T04:10:55;10.06;81.87
65584;DHT22;73032;43.592;1.458;2024-01-25T04:13:21;10.09;81.82
65584;DHT22;73032;43.592;1.458;2024-01-25T04:15:48;10.08;81.90
65584;DHT22;73032;43.592;1.458;2024-01-25T04:18:15;10.12;81.94
65584;DHT22;73032;43.592;1.458;2024-01-25T04:20:43;10.11;81.97
65584;DHT22;73032;43.592;1.458;2024-01-25T04:23:10;10.09;81.99
65584;DHT22;73032;43.592;1.458;2024-01-25T04:25:37;10.11;81.93
65584;DHT22;73032;43.592;1.458;2024-01-25T04:28:04;10.11;81.95
65584;DHT22;73032;43.592;1.458;2024-01-25T04:30:31;10.09;82.06
65584;DHT22;73032;43.592;1.458;2024-01-25T04:32:59;10.08;82.14
65584;DHT22;73032;43.592;1.458;2024-01-25T04:35:26;10.09;82.17
65584;DHT22;73032;43.592;1.458;2024-01-25T04:37:53;10.06;82.22
65584;DHT22;73032;43.592;1.458;2024-01-25T04:40:20;10.06;82.34
65584;DHT22;73032;43.592;1.458;2024-01-25T04:42:47;10.05;82.34
65584;DHT22;73032;43.592;1.458;2024-01-25T04:45:14;10.04;82.35
65584;DHT22;73032;43.592;1.458;2024-01-25T04:47:40;10.04;82.37
65584;DHT22;73032;43.592;1.458;2024-01-25T04:50:07;10.05;82.37
65584;DHT22;73032;43.592;1.458;2024-01-25T04:52:34;10.05;82.48
65584;DHT22;73032;43.592;1.458;2024-01-25T04:55:01;10.04;82.44
65584;DHT22;73032;43.592;1.458;2024-01-25T04:57:28;10.02;82.45
65584;DHT22;73032;43.592;1.458;2024-01-25T04:59:54;10.02;82.46
65584;DHT22;73032;43.592;1.458;2024-01-25T05:02:21;10.04;82.43
65584;DHT22;73032;43.592;1.458;2024-01-25T05:04:48;10.05;82.41
65584;DHT22;73032;43.592;1.458;2024-01-25T05:07:15;10.05;82.40
65584;DHT22;73032;43.592;1.458;2024-01-25T05:09:42;10.06;82.40
65584;DHT22;73032;43.592;1.458;2024-01-25T05:12:09;10.06;82.41
65584;DHT22;73032;43.592;1.458;2024-01-25T05:14:36;10.08;82.38
65584;DHT22;73032;43.592;1.458;2024-01-25T05:17:02;10.11;82.46
65584;DHT22;73032;43.592;1.458;2024-01-25T05:19:29;10.12;82.41
65584;DHT22;73032;43.592;1.458;2024-01-25T05:21:56;10.12;82.42
65584;DHT22;73032;43.592;1.458;2024-01-25T05:24:23;10.11;82.42
65584;DHT22;73032;43.592;1.458;2024-01-25T05:26:50;10.12;82.44
65584;DHT22;73032;43.592;1.458;2024-01-25T05:29:16;10.14;82.44
65584;DHT22;73032;43.592;1.458;2024-01-25T05:31:43;10.14;82.42
65584;DHT22;73032;43.592;1.458;2024-01-25T05:34:10;10.16;82.53
65584;DHT22;73032;43.592;1.458;2024-01-25T05:36:37;10.15;82.47
65584;DHT22;73032;43.592;1.458;2024-01-25T05:39:04;10.19;82.46
65584;DHT22;73032;43.592;1.458;2024-01-25T05:41:33;10.16;82.50
65584;DHT22;73032;43.592;1.458;2024-01-25T05:44:00;10.16;82.52
65584;DHT22;73032;43.592;1.458;2024-01-25T05:46:26;10.18;82.53
65584;DHT22;73032;43.592;1.458;2024-01-25T05:48:53;10.21;82.55
65584;DHT22;73032;43.592;1.458;2024-01-25T05:51:20;10.18;82.57
65584;DHT22;73032;43.592;1.458;2024-01-25T05:53:47;10.22;82.62
65584;DHT22;73032;43.592;1.458;2024-01-25T05:56:14;10.24;82.57
65584;DHT22;73032;43.592;1.458;2024-01-25T05:58:40;10.25;82.60
65584;DHT22;73032;43.592;1.458;2024-01-25T06:01:07;10.25;82.59
65584;DHT22;73032;43.592;1.458;2024-01-25T06:03:34;10.25;82.60
65584;DHT22;73032;43.592;1.458;2024-01-25T06:06:02;10.26;82.64
65584;DHT22;73032;43.592;1.458;2024-01-25T06:08:29;10.26;82.65
65584;DHT22;73032;43.592;1.458;2024-01-25T06:10:56;10.26;82.70
65584;DHT22;73032;43.592;1.458;2024-01-25T06:13:22;10.29;82.70
65584;DHT22;73032;43.592;1.458;2024-01-25T06:15:49;10.31;82.71
65584;DHT22;73032;43.592;1.458;2024-01-25T06:18:16;10.31;82.71
65584;DHT22;73032;43.592;1.458;2024-01-25T06:20:43;10.32;82.75
65584;DHT22;73032;43.592;1.458;2024-01-25T06:23:10;10.29;82.79
65584;DHT22;73032;43.592;1.458;2024-01-25T06:25:37;10.31;82.78
65584;DHT22;73032;43.592;1.458;2024-01-25T06:28:04;10.32;82.82
65584;DHT22;73032;43.592;1.458;2024-01-25T06:30:30;10.29;82.88
65584;DHT22;73032;43.592;1.458;2024-01-25T06:32:57;10.31;82.85
65584;DHT22;73032;43.592;1.458;2024-01-25T06:35:24;10.28;82.88
65584;DHT22;73032;43.592;1.458;2024-01-25T06:37:51;10.28;82.94
65584;DHT22;73032;43.592;1.458;2024-01-25T06:40:18;10.26;83.00
65584;DHT22;73032;43.592;1.458;2024-01-25T06:42:45;10.26;82.96
65584;DHT22;73032;43.592;1.458;2024-01-25T06:45:12;10.26;83.00
65584;DHT22;73032;43.592;1.458;2024-01-25T06:47:38;10.25;83.01
65584;DHT22;73032;43.592;1.458;2024-01-25T06:50:08;10.26;83.07
65584;DHT22;73032;43.592;1.458;2024-01-25T06:52:35;10.26;83.06
65584;DHT22;73032;43.592;1.458;2024-01-25T06:55:01;10.28;83.13
65584;DHT22;73032;43.592;1.458;2024-01-25T06:57:28;10.25;83.13
65584;DHT22;73032;43.592;1.458;2024-01-25T06:59:55;10.25;83.16
65584;DHT22;73032;43.592;1.458;2024-01-25T07:02:22;10.24;83.17
65584;DHT22;73032;43.592;1.458;2024-01-25T07:04:49;10.25;83.22
65584;DHT22;73032;43.592;1.458;2024-01-25T07:07:19;10.24;83.27
65584;DHT22;73032;43.592;1.458;2024-01-25T07:09:46;10.22;83.32
65584;DHT22;73032;43.592;1.458;2024-01-25T07:12:13;10.22;83.37
65584;DHT22;73032;43.592;1.458;2024-01-25T07:14:40;10.21;83.35
65584;DHT22;73032;43.592;1.458;2024-01-25T07:17:07;10.19;83.44
65584;DHT22;73032;43.592;1.458;2024-01-25T07:19:34;10.19;83.42
65584;DHT22;73032;43.592;1.458;2024-01-25T07:22:00;10.19;83.47
65584;DHT22;73032;43.592;1.458;2024-01-25T07:24:27;10.21;83.48
65584;DHT22;73032;43.592;1.458;2024-01-25T07:26:54;10.19;83.44
65584;DHT22;73032;43.592;1.458;2024-01-25T07:29:22;10.19;83.49
65584;DHT22;73032;43.592;1.458;2024-01-25T07:31:49;10.19;83.52
65584;DHT22;73032;43.592;1.458;2024-01-25T07:34:15;10.19;83.50
65584;DHT22;73032;43.592;1.458;2024-01-25T07:40:06;10.19;83.50
65584;DHT22;73032;43.592;1.458;2024-01-25T07:42:33;10.21;83.47
65584;DHT22;73032;43.592;1.458;2024-01-25T07:45:00;10.22;83.51
65584;DHT22;73032;43.592;1.458;2024-01-25T07:47:27;10.22;83.47
65584;DHT22;73032;43.592;1.458;2024-01-25T07:49:54;10.21;83.57
65584;DHT22;73032;43.592;1.458;2024-01-25T07:52:21;10.22;83.61
65584;DHT22;73032;43.592;1.458;2024-01-25T07:54:52;10.21;83.57
65584;DHT22;73032;43.592;1.458;2024-01-25T07:57:20;10.24;83.60
65584;DHT22;73032;43.592;1.458;2024-01-25T07:59:46;10.19;83.70
65584;DHT22;73032;43.592;1.458;2024-01-25T08:02:13;10.22;83.66
65584;DHT22;73032;43.592;1.458;2024-01-25T08:04:45;10.25;83.61
65584;DHT22;73032;43.592;1.458;2024-01-25T08:07:12;10.26;83.59
65584;DHT22;73032;43.592;1.458;2024-01-25T08:09:39;10.31;83.57
65584;DHT22;73032;43.592;1.458;2024-01-25T08:12:06;10.34;83.57
65584;DHT22;73032;43.592;1.458;2024-01-25T08:14:33;10.35;83.56
65584;DHT22;73032;43.592;1.458;2024-01-25T08:16:59;10.39;83.54
65584;DHT22;73032;43.592;1.458;2024-01-25T08:19:26;10.42;83.51
65584;DHT22;73032;43.592;1.458;2024-01-25T08:21:53;10.48;83.56
65584;DHT22;73032;43.592;1.458;2024-01-25T08:24:20;10.52;83.53
65584;DHT22;73032;43.592;1.458;2024-01-25T08:26:47;10.55;83.52
65584;DHT22;73032;43.592;1.458;2024-01-25T08:29:14;10.57;83.47
65584;DHT22;73032;43.592;1.458;2024-01-25T08:31:40;10.65;83.39
65584;DHT22;73032;43.592;1.458;2024-01-25T08:34:08;10.65;83.32
65584;DHT22;73032;43.592;1.458;2024-01-25T08:36:35;10.70;83.26
65584;DHT22;73032;43.592;1.458;2024-01-25T08:39:02;10.75;83.22
65584;DHT22;73032;43.592;1.458;2024-01-25T08:41:31;10.79;83.18
65584;DHT22;73032;43.592;1.458;2024-01-25T08:43:58;10.83;83.17
65584;DHT22;73032;43.592;1.458;2024-01-25T08:46:25;10.87;83.18
65584;DHT22;73032;43.592;1.458;2024-01-25T08:48:52;10.93;83.13
65584;DHT22;73032;43.592;1.458;2024-01-25T08:51:19;10.99;83.14
65584;DHT22;73032;43.592;1.458;2024-01-25T08:53:46;11.06;83.18
65584;DHT22;73032;43.592;1.458;2024-01-25T08:56:12;11.11;83.11
65584;DHT22;73032;43.592;1.458;2024-01-25T08:58:39;11.17;83.13
65584;DHT22;73032;43.592;1.458;2024-01-25T09:01:06;11.21;83.04
65584;DHT22;73032;43.592;1.458;2024-01-25T09:03:33;11.27;83.02
65584;DHT22;73032;43.592;1.458;2024-01-25T09:06:00;11.30;82.94
65584;DHT22;73032;43.592;1.458;2024-01-25T09:08:32;11.33;82.91
65584;DHT22;73032;43.592;1.458;2024-01-25T09:11:00;11.40;82.82
65584;DHT22;73032;43.592;1.458;2024-01-25T09:13:27;11.45;82.77
65584;DHT22;73032;43.592;1.458;2024-01-25T09:15:53;11.50;82.74
65584;DHT22;73032;43.592;1.458;2024-01-25T09:18:20;11.55;82.69
65584;DHT22;73032;43.592;1.458;2024-01-25T09:20:47;11.57;82.58
65584;DHT22;73032;43.592;1.458;2024-01-25T09:23:15;11.65;82.61
65584;DHT22;73032;43.592;1.458;2024-01-25T09:25:44;11.67;82.54
65584;DHT22;73032;43.592;1.458;2024-01-25T09:28:11;11.71;82.47
65584;DHT22;73032;43.592;1.458;2024-01-25T09:30:41;11.74;82.43
65584;DHT22;73032;43.592;1.458;2024-01-25T09:33:08;11.74;82.35
65584;DHT22;73032;43.592;1.458;2024-01-25T09:35:35;11.79;82.31
65584;DHT22;73032;43.592;1.458;2024-01-25T09:38:03;11.79;82.29
65584;DHT22;73032;43.592;1.458;2024-01-25T09:40:29;11.81;82.30
65584;DHT22;73032;43.592;1.458;2024-01-25T09:42:56;11.85;82.25
65584;DHT22;73032;43.592;1.458;2024-01-25T09:45:26;11.88;82.22
65584;DHT22;73032;43.592;1.458;2024-01-25T09:47:52;11.92;82.13
65584;DHT22;73032;43.592;1.458;2024-01-25T09:50:20;11.98;82.10
65584;DHT22;73032;43.592;1.458;2024-01-25T09:52:54;12.04;82.02
65584;DHT22;73032;43.592;1.458;2024-01-25T09:55:27;12.12;81.94
65584;DHT22;73032;43.592;1.458;2024-01-25T09:57:54;12.18;81.80
65584;DHT22;73032;43.592;1.458;2024-01-25T10:00:24;12.26;81.71
65584;DHT22;73032;43.592;1.458;2024-01-25T10:02:52;12.33;81.57
65584;DHT22;73032;43.592;1.458;2024-01-25T10:05:20;12.39;81.43
65584;DHT22;73032;43.592;1.458;2024-01-25T10:07:47;12.42;81.25
65584;DHT22;73032;43.592;1.458;2024-01-25T10:10:15;12.45;81.18
65584;DHT22;73032;43.592;1.458;2024-01-25T10:12:43;12.50;81.10
65584;DHT22;73032;43.592;1.458;2024-01-25T10:15:10;12.53;81.01
65584;DHT22;73032;43.592;1.458;2024-01-25T10:17:38;12.59;80.93
65584;DHT22;73032;43.592;1.458;2024-01-25T10:20:27;12.66;80.81
65584;DHT22;73032;43.592;1.458;2024-01-25T10:22:58;12.72;80.70
65584;DHT22;73032;43.592;1.458;2024-01-25T10:25:26;12.79;80.58
65584;DHT22;73032;43.592;1.458;2024-01-25T10:27:54;12.89;80.40
65584;DHT22;73032;43.592;1.458;2024-01-25T10:30:21;13.04;80.22
65584;DHT22;73032;43.592;1.458;2024-01-25T10:32:49;13.28;79.94
65584;DHT22;73032;43.592;1.458;2024-01-25T10:35:18;13.41;79.70
65584;DHT22;73032;43.592;1.458;2024-01-25T10:37:50;13.45;79.44
65584;DHT22;73032;43.592;1.458;2024-01-25T10:40:21;13.51;79.20
65584;DHT22;73032;43.592;1.458;2024-01-25T10:42:48;13.53;79.04
65584;DHT22;73032;43.592;1.458;2024-01-25T10:45:16;13.58;78.96
65584;DHT22;73032;43.592;1.458;2024-01-25T10:47:42;13.61;78.87
65584;DHT22;73032;43.592;1.458;2024-01-25T10:50:12;13.74;78.75
65584;DHT22;73032;43.592;1.458;2024-01-25T10:52:41;13.85;78.62
65584;DHT22;73032;43.592;1.458;2024-01-25T10:55:12;13.97;78.42
65584;DHT22;73032;43.592;1.458;2024-01-25T10:57:42;14.12;78.16
65584;DHT22;73032;43.592;1.458;2024-01-25T11:00:11;14.29;77.98
65584;DHT22;73032;43.592;1.458;2024-01-25T11:02:39;14.40;77.70
65584;DHT22;73032;43.592;1.458;2024-01-25T11:05:16;14.63;77.39
65584;DHT22;73032;43.592;1.458;2024-01-25T11:07:46;14.87;76.96
65584;DHT22;73032;43.592;1.458;2024-01-25T11:10:18;15.17;76.72
65584;DHT22;73032;43.592;1.458;2024-01-25T11:13:03;15.55;76.05
65584;DHT22;73032;43.592;1.458;2024-01-25T11:15:31;16.05;75.62
65584;DHT22;73032;43.592;1.458;2024-01-25T11:18:00;16.46;74.83
65584;DHT22;73032;43.592;1.458;2024-01-25T11:20:29;17.00;73.60
65584;DHT22;73032;43.592;1.458;2024-01-25T11:23:06;17.72;72.43
65584;DHT22;73032;43.592;1.458;2024-01-25T11:25:37;19.22;71.16
65584;DHT22;73032;43.592;1.458;2024-01-25T11:28:07;20.61;69.04
65584;DHT22;73032;43.592;1.458;2024-01-25T11:30:37;21.96;65.35
65584;DHT22;73032;43.592;1.458;2024-01-25T11:33:07;23.18;61.43
65584;DHT22;73032;43.592;1.458;2024-01-25T11:35:35;24.07;58.69
65584;DHT22;73032;43.592;1.458;2024-01-25T11:38:02;24.06;53.39
65584;DHT22;73032;43.592;1.458;2024-01-25T11:40:30;23.53;47.77
65584;DHT22;73032;43.592;1.458;2024-01-25T11:43:05;20.71;92.29
65584;DHT22;73032;43.592;1.458;2024-01-25T11:45:38;19.89;88.36
65584;DHT22;73032;43.592;1.458;2024-01-25T11:48:10;19.87;77.80
65584;DHT22;73032;43.592;1.458;2024-01-25T11:50:37;19.42;74.68
65584;DHT22;73032;43.592;1.458;2024-01-25T11:53:04;19.52;74.31
65584;DHT22;73032;43.592;1.458;2024-01-25T11:55:31;19.45;69.66
65584;DHT22;73032;43.592;1.458;2024-01-25T11:57:58;19.58;70.59
65584;DHT22;73032;43.592;1.458;2024-01-25T12:00:25;20.01;73.34
65584;DHT22;73032;43.592;1.458;2024-01-25T12:02:52;20.54;67.92
65584;DHT22;73032;43.592;1.458;2024-01-25T12:05:19;20.99;70.72
65584;DHT22;73032;43.592;1.458;2024-01-25T12:07:47;21.11;66.43
65584;DHT22;73032;43.592;1.458;2024-01-25T12:10:16;21.76;67.36
65584;DHT22;73032;43.592;1.458;2024-01-25T12:12:44;22.18;62.56
65584;DHT22;73032;43.592;1.458;2024-01-25T12:15:11;21.78;55.86
65584;DHT22;73032;43.592;1.458;2024-01-25T12:17:39;22.17;58.14
65584;DHT22;73032;43.592;1.458;2024-01-25T12:20:08;22.77;56.08
65584;DHT22;73032;43.592;1.458;2024-01-25T12:22:38;23.08;59.81
65584;DHT22;73032;43.592;1.458;2024-01-25T12:25:09;23.05;54.71
65584;DHT22;73032;43.592;1.458;2024-01-25T12:27:39;23.69;56.54
65584;DHT22;73032;43.592;1.458;2024-01-25T12:30:08;24.12;55.72
65584;DHT22;73032;43.592;1.458;2024-01-25T12:32:35;24.14;50.33
65584;DHT22;73032;43.592;1.458;2024-01-25T12:35:02;24.51;50.83
65584;DHT22;73032;43.592;1.458;2024-01-25T12:37:30;24.69;49.69
65584;DHT22;73032;43.592;1.458;2024-01-25T12:39:57;25.11;50.04
65584;DHT22;73032;43.592;1.458;2024-01-25T12:42:24;25.02;51.08
65584;DHT22;73032;43.592;1.458;2024-01-25T12:45:09;25.32;48.10
65584;DHT22;73032;43.592;1.458;2024-01-25T12:47:36;25.39;48.08
65584;DHT22;73032;43.592;1.458;2024-01-25T12:50:03;25.58;49.80
65584;DHT22;73032;43.592;1.458;2024-01-25T12:52:30;25.87;52.81
65584;DHT22;73032;43.592;1.458;2024-01-25T12:54:57;25.87;45.06
65584;DHT22;73032;43.592;1.458;2024-01-25T12:57:24;26.18;47.13
65584;DHT22;73032;43.592;1.458;2024-01-25T12:59:51;26.14;44.22
65584;DHT22;73032;43.592;1.458;2024-01-25T13:02:18;26.65;45.39
65584;DHT22;73032;43.592;1.458;2024-01-25T13:04:44;26.85;43.74
65584;DHT22;73032;43.592;1.458;2024-01-25T13:07:11;27.32;42.74
65584;DHT22;73032;43.592;1.458;2024-01-25T13:09:38;27.29;41.27
65584;DHT22;73032;43.592;1.458;2024-01-25T13:12:08;27.52;39.65
65584;DHT22;73032;43.592;1.458;2024-01-25T13:14:35;27.57;43.56
65584;DHT22;73032;43.592;1.458;2024-01-25T13:17:01;27.89;40.84
65584;DHT22;73032;43.592;1.458;2024-01-25T13:19:28;27.89;40.71
65584;DHT22;73032;43.592;1.458;2024-01-25T13:21:56;28.11;41.87
65584;DHT22;73032;43.592;1.458;2024-01-25T13:24:23;28.09;40.62
65584;DHT22;73032;43.592;1.458;2024-01-25T13:26:49;28.21;40.20
65584;DHT22;73032;43.592;1.458;2024-01-25T13:29:16;28.01;38.87
65584;DHT22;73032;43.592;1.458;2024-01-25T13:31:43;28.01;39.15
65584;DHT22;73032;43.592;1.458;2024-01-25T13:34:10;27.94;41.01
65584;DHT22;73032;43.592;1.458;2024-01-25T13:36:37;28.00;37.64
65584;DHT22;73032;43.592;1.458;2024-01-25T13:39:04;27.83;40.71
65584;DHT22;73032;43.592;1.458;2024-01-25T13:41:30;27.96;38.25
65584;DHT22;73032;43.592;1.458;2024-01-25T13:43:57;27.67;37.74
65584;DHT22;73032;43.592;1.458;2024-01-25T13:46:24;27.36;40.64
65584;DHT22;73032;43.592;1.458;2024-01-25T13:48:52;27.16;38.64
65584;DHT22;73032;43.592;1.458;2024-01-25T13:51:19;26.96;39.90
65584;DHT22;73032;43.592;1.458;2024-01-25T13:53:45;26.87;60.63
65584;DHT22;73032;43.592;1.458;2024-01-25T13:56:14;26.23;53.99
65584;DHT22;73032;43.592;1.458;2024-01-25T13:58:41;25.43;52.31
65584;DHT22;73032;43.592;1.458;2024-01-25T14:01:07;24.38;53.23
65584;DHT22;73032;43.592;1.458;2024-01-25T14:03:34;24.09;60.58
65584;DHT22;73032;43.592;1.458;2024-01-25T14:06:01;23.80;52.30
65584;DHT22;73032;43.592;1.458;2024-01-25T14:08:31;23.50;60.38
65584;DHT22;73032;43.592;1.458;2024-01-25T14:10:58;23.39;60.59
65584;DHT22;73032;43.592;1.458;2024-01-25T14:13:25;23.32;58.37
65584;DHT22;73032;43.592;1.458;2024-01-25T14:15:52;23.09;60.01
65584;DHT22;73032;43.592;1.458;2024-01-25T14:18:19;22.77;57.60
65584;DHT22;73032;43.592;1.458;2024-01-25T14:20:46;22.23;56.30
65584;DHT22;73032;43.592;1.458;2024-01-25T14:23:13;22.04;56.53
65584;DHT22;73032;43.592;1.458;2024-01-25T14:25:40;21.78;54.41
65584;DHT22;73032;43.592;1.458;2024-01-25T14:28:07;21.62;57.96
65584;DHT22;73032;43.592;1.458;2024-01-25T14:30:34;21.50;56.84
65584;DHT22;73032;43.592;1.458;2024-01-25T14:33:00;21.25;56.91
65584;DHT22;73032;43.592;1.458;2024-01-25T14:35:27;21.11;55.46
65584;DHT22;73032;43.592;1.458;2024-01-25T14:37:57;21.06;55.69
65584;DHT22;73032;43.592;1.458;2024-01-25T14:40:24;20.94;55.86
65584;DHT22;73032;43.592;1.458;2024-01-25T14:43:10;20.61;56.70
65584;DHT22;73032;43.592;1.458;2024-01-25T14:45:37;20.58;57.09
65584;DHT22;73032;43.592;1.458;2024-01-25T14:48:04;20.39;57.02
65584;DHT22;73032;43.592;1.458;2024-01-25T14:50:32;20.12;58.04
65584;DHT22;73032;43.592;1.458;2024-01-25T14:52:59;19.80;57.11
65584;DHT22;73032;43.592;1.458;2024-01-25T14:55:25;19.82;57.82
65584;DHT22;73032;43.592;1.458;2024-01-25T14:57:52;19.79;57.66
65584;DHT22;73032;43.592;1.458;2024-01-25T15:00:19;19.79;58.65
65584;DHT22;73032;43.592;1.458;2024-01-25T15:02:47;19.90;61.20
65584;DHT22;73032;43.592;1.458;2024-01-25T15:05:13;20.34;57.54
65584;DHT22;73032;43.592;1.458;2024-01-25T15:07:40;20.26;55.74
65584;DHT22;73032;43.592;1.458;2024-01-25T15:10:08;20.33;54.96
65584;DHT22;73032;43.592;1.458;2024-01-25T15:12:35;20.36;57.98
65584;DHT22;73032;43.592;1.458;2024-01-25T15:15:02;20.44;56.40
65584;DHT22;73032;43.592;1.458;2024-01-25T15:17:29;20.48;54.81
65584;DHT22;73032;43.592;1.458;2024-01-25T15:19:55;20.57;55.97
65584;DHT22;73032;43.592;1.458;2024-01-25T15:22:22;20.64;55.29
65584;DHT22;73032;43.592;1.458;2024-01-25T15:24:52;20.50;54.83
65584;DHT22;73032;43.592;1.458;2024-01-25T15:27:19;20.34;55.32
65584;DHT22;73032;43.592;1.458;2024-01-25T15:29:46;20.17;58.11
65584;DHT22;73032;43.592;1.458;2024-01-25T15:32:12;20.16;58.20
65584;DHT22;73032;43.592;1.458;2024-01-25T15:34:39;20.10;56.28